sensor_id;sensor_type;location;lat;lon;timestamp;pressure;altitude;pressure_sealevel;temperature;humidity
71573;BME280;59408;51.032;9.410;2023-02-15T00:00:53;100533.66;;;-1.34;100.00
71573;BME280;59408;51.032;9.410;2023-02-15T00:03:20;100531.00;;;-1.34;100.00
71573;BME280;59408;51.032;9.410;2023-02-15T00:05:46;100525.13;;;-1.43;100.00
71573;BME280;59408;51.032;9.410;2023-02-15T00:08:14;100529.94;;;-1.33;100.00
71573;BME280;59408;51.032;9.410;2023-02-15T00:10:41;100525.84;;;-1.36;100.00
71573;BME280;59408;51.032;9.410;2023-02-15T00:13:07;100538.88;;;-1.40;100.00
71573;BME280;59408;51.032;9.410;2023-02-15T00:15:34;100538.28;;;-1.42;100.00
71573;BME280;59408;51.032;9.410;2023-02-15T00:18:00;100544.97;;;-1.51;100.00
71573;BME280;59408;51.032;9.410;2023-02-15T00:20:27;100536.94;;;-1.51;100.00
71573;BME280;59408;51.032;9.410;2023-02-15T00:22:54;100536.28;;;-1.46;100.00
71573;BME280;59408;51.032;9.410;2023-02-15T00:25:22;100537.47;;;-1.42;100.00
71573;BME280;59408;51.032;9.410;2023-02-15T00:27:49;100538.88;;;-1.40;100.00
71573;BME280;59408;51.032;9.410;2023-02-15T00:30:16;100534.13;;;-1.38;100.00
71573;BME280;59408;51.032;9.410;2023-02-15T00:32:43;100527.16;;;-1.39;100.00
71573;BME280;59408;51.032;9.410;2023-02-15T00:35:09;100517.69;;;-1.41;100.00
71573;BME280;59408;51.032;9.410;2023-02-15T00:37:36;100504.63;;;-1.49;100.00
71573;BME280;59408;51.032;9.410;2023-02-15T00:40:04;100512.28;;;-1.53;100.00
71573;BME280;59408;51.032;9.410;2023-02-15T00:42:32;100503.19;;;-1.52;100.00
71573;BME280;59408;51.032;9.410;2023-02-15T00:44:59;100509.59;;;-1.53;100.00
71573;BME280;59408;51.032;9.410;2023-02-15T00:47:26;100494.34;;;-1.52;100.00
71573;BME280;59408;51.032;9.410;2023-02-15T00:49:52;100504.84;;;-1.51;100.00
71573;BME280;59408;51.032;9.410;2023-02-15T00:52:19;100503.59;;;-1.48;100.00
71573;BME280;59408;51.032;9.410;2023-02-15T00:54:45;100494.56;;;-1.54;100.00
71573;BME280;59408;51.032;9.410;2023-02-15T00:57:12;100498.88;;;-1.53;100.00
71573;BME280;59408;51.032;9.410;2023-02-15T00:59:40;100496.44;;;-1.54;100.00
71573;BME280;59408;51.032;9.410;2023-02-15T01:02:07;100498.31;;;-1.55;100.00
71573;BME280;59408;51.032;9.410;2023-02-15T01:04:33;100491.97;;;-1.60;100.00
71573;BME280;59408;51.032;9.410;2023-02-15T01:07:00;100492.06;;;-1.67;100.00
71573;BME280;59408;51.032;9.410;2023-02-15T01:09:27;100484.88;;;-1.66;100.00
71573;BME280;59408;51.032;9.410;2023-02-15T01:11:53;100487.31;;;-1.65;100.00
71573;BME280;59408;51.032;9.410;2023-02-15T01:14:20;100487.38;;;-1.71;100.00
71573;BME280;59408;51.032;9.410;2023-02-15T01:16:48;100490.44;;;-1.68;100.00
71573;BME280;59408;51.032;9.410;2023-02-15T01:19:15;100480.56;;;-1.67;100.00
71573;BME280;59408;51.032;9.410;2023-02-15T01:21:41;100489.69;;;-1.75;100.00
71573;BME280;59408;51.032;9.410;2023-02-15T01:24:11;100489.47;;;-1.73;100.00
71573;BME280;59408;51.032;9.410;2023-02-15T01:26:38;100485.72;;;-1.72;100.00
71573;BME280;59408;51.032;9.410;2023-02-15T01:29:05;100499.09;;;-1.72;100.00
71573;BME280;59408;51.032;9.410;2023-02-15T01:31:31;100494.88;;;-1.80;100.00
71573;BME280;59408;51.032;9.410;2023-02-15T01:34:00;100493.41;;;-1.76;100.00
71573;BME280;59408;51.032;9.410;2023-02-15T01:36:26;100484.78;;;-1.78;100.00
71573;BME280;59408;51.032;9.410;2023-02-15T01:38:53;100496.97;;;-1.82;100.00
71573;BME280;59408;51.032;9.410;2023-02-15T01:41:19;100480.25;;;-1.78;100.00
71573;BME280;59408;51.032;9.410;2023-02-15T01:43:48;100475.34;;;-1.81;100.00
71573;BME280;59408;51.032;9.410;2023-02-15T01:46:18;100481.16;;;-1.84;100.00
71573;BME280;59408;51.032;9.410;2023-02-15T01:48:47;100472.75;;;-1.87;100.00
71573;BME280;59408;51.032;9.410;2023-02-15T01:51:18;100472.97;;;-1.89;100.00
71573;BME280;59408;51.032;9.410;2023-02-15T01:53:49;100465.97;;;-1.90;100.00
71573;BME280;59408;51.032;9.410;2023-02-15T01:56:20;100472.34;;;-1.91;100.00
71573;BME280;59408;51.032;9.410;2023-02-15T01:58:47;100467.59;;;-1.89;100.00
71573;BME280;59408;51.032;9.410;2023-02-15T02:01:15;100471.19;;;-1.95;100.00
71573;BME280;59408;51.032;9.410;2023-02-15T02:03:47;100476.91;;;-1.91;100.00
71573;BME280;59408;51.032;9.410;2023-02-15T02:06:18;100482.53;;;-1.99;100.00
71573;BME280;59408;51.032;9.410;2023-02-15T02:08:45;100474.38;;;-2.04;100.00
71573;BME280;59408;51.032;9.410;2023-02-15T02:11:13;100477.78;;;-1.97;100.00
71573;BME280;59408;51.032;9.410;2023-02-15T02:13:40;100476.34;;;-2.00;100.00
71573;BME280;59408;51.032;9.410;2023-02-15T02:16:12;100466.28;;;-1.98;100.00
71573;BME280;59408;51.032;9.410;2023-02-15T02:18:45;100467.97;;;-2.03;100.00
71573;BME280;59408;51.032;9.410;2023-02-15T02:21:45;100458.47;;;-1.99;100.00
71573;BME280;59408;51.032;9.410;2023-02-15T02:24:40;100460.69;;;-1.96;100.00
71573;BME280;59408;51.032;9.410;2023-02-15T02:27:36;100460.31;;;-2.00;100.00
71573;BME280;59408;51.032;9.410;2023-02-15T02:30:25;100461.44;;;-2.07;100.00
71573;BME280;59408;51.032;9.410;2023-02-15T02:33:25;100458.75;;;-2.07;100.00
71573;BME280;59408;51.032;9.410;2023-02-15T02:36:02;100455.66;;;-2.04;100.00
71573;BME280;59408;51.032;9.410;2023-02-15T02:38:38;100449.09;;;-2.08;100.00
71573;BME280;59408;51.032;9.410;2023-02-15T02:41:16;100448.06;;;-2.07;100.00
71573;BME280;59408;51.032;9.410;2023-02-15T02:43:48;100450.44;;;-2.18;100.00
71573;BME280;59408;51.032;9.410;2023-02-15T02:46:21;100446.13;;;-2.19;100.00
71573;BME280;59408;51.032;9.410;2023-02-15T02:48:52;100446.78;;;-2.23;100.00
71573;BME280;59408;51.032;9.410;2023-02-15T02:51:19;100447.59;;;-2.23;100.00
71573;BME280;59408;51.032;9.410;2023-02-15T02:53:46;100437.66;;;-2.16;100.00
71573;BME280;59408;51.032;9.410;2023-02-15T02:56:20;100432.78;;;-2.19;100.00
71573;BME280;59408;51.032;9.410;2023-02-15T02:58:50;100435.28;;;-2.24;100.00
71573;BME280;59408;51.032;9.410;2023-02-15T03:01:24;100431.97;;;-2.19;100.00
71573;BME280;59408;51.032;9.410;2023-02-15T03:03:57;100425.81;;;-2.20;100.00
71573;BME280;59408;51.032;9.410;2023-02-15T03:06:31;100421.03;;;-2.18;100.00
71573;BME280;59408;51.032;9.410;2023-02-15T03:09:04;100421.28;;;-2.19;100.00
71573;BME280;59408;51.032;9.410;2023-02-15T03:11:34;100421.50;;;-2.21;100.00
71573;BME280;59408;51.032;9.410;2023-02-15T03:14:00;100409.75;;;-2.20;100.00
71573;BME280;59408;51.032;9.410;2023-02-15T03:16:27;100408.56;;;-2.24;100.00
71573;BME280;59408;51.032;9.410;2023-02-15T03:19:01;100411.09;;;-2.29;100.00
71573;BME280;59408;51.032;9.410;2023-02-15T03:21:34;100404.47;;;-2.26;100.00
71573;BME280;59408;51.032;9.410;2023-02-15T03:24:07;100405.44;;;-2.21;100.00
71573;BME280;59408;51.032;9.410;2023-02-15T03:26:36;100411.41;;;-2.19;100.00
71573;BME280;59408;51.032;9.410;2023-02-15T03:29:05;100400.53;;;-2.24;100.00
71573;BME280;59408;51.032;9.410;2023-02-15T03:31:36;100399.38;;;-2.28;100.00
71573;BME280;59408;51.032;9.410;2023-02-15T03:34:08;100394.88;;;-2.34;100.00
71573;BME280;59408;51.032;9.410;2023-02-15T03:36:41;100390.38;;;-2.33;100.00
71573;BME280;59408;51.032;9.410;2023-02-15T03:39:13;100384.81;;;-2.32;100.00
71573;BME280;59408;51.032;9.410;2023-02-15T03:41:48;100383.16;;;-2.33;100.00
71573;BME280;59408;51.032;9.410;2023-02-15T03:44:21;100390.22;;;-2.38;100.00
71573;BME280;59408;51.032;9.410;2023-02-15T03:46:54;100388.59;;;-2.39;100.00
71573;BME280;59408;51.032;9.410;2023-02-15T03:49:28;100388.59;;;-2.39;100.00
71573;BME280;59408;51.032;9.410;2023-02-15T03:51:58;100374.63;;;-2.41;100.00
71573;BME280;59408;51.032;9.410;2023-02-15T03:54:28;100381.59;;;-2.40;100.00
71573;BME280;59408;51.032;9.410;2023-02-15T03:56:57;100377.72;;;-2.44;100.00
71573;BME280;59408;51.032;9.410;2023-02-15T03:59:24;100381.44;;;-2.45;100.00
71573;BME280;59408;51.032;9.410;2023-02-15T04:01:58;100375.13;;;-2.51;100.00
71573;BME280;59408;51.032;9.410;2023-02-15T04:04:35;100375.94;;;-2.51;100.00
71573;BME280;59408;51.032;9.410;2023-02-15T04:07:04;100380.59;;;-2.64;100.00
71573;BME280;59408;51.032;9.410;2023-02-15T04:09:32;100386.75;;;-2.64;100.00
71573;BME280;59408;51.032;9.410;2023-02-15T04:11:58;100385.88;;;-2.58;100.00
71573;BME280;59408;51.032;9.410;2023-02-15T04:14:25;100384.66;;;-2.62;100.00
71573;BME280;59408;51.032;9.410;2023-02-15T04:16:52;100378.16;;;-2.66;100.00
71573;BME280;59408;51.032;9.410;2023-02-15T04:19:19;100379.63;;;-2.70;100.00
71573;BME280;59408;51.032;9.410;2023-02-15T04:21:47;100377.84;;;-2.76;100.00
71573;BME280;59408;51.032;9.410;2023-02-15T04:24:14;100378.03;;;-2.77;100.00
71573;BME280;59408;51.032;9.410;2023-02-15T04:26:40;100377.84;;;-2.76;100.00
71573;BME280;59408;51.032;9.410;2023-02-15T04:29:07;100376.63;;;-2.80;100.00
71573;BME280;59408;51.032;9.410;2023-02-15T04:31:34;100373.72;;;-2.78;100.00
71573;BME280;59408;51.032;9.410;2023-02-15T04:34:00;100373.91;;;-2.73;100.00
71573;BME280;59408;51.032;9.410;2023-02-15T04:36:27;100370.56;;;-2.69;100.00
71573;BME280;59408;51.032;9.410;2023-02-15T04:38:55;100371.81;;;-2.71;100.00
71573;BME280;59408;51.032;9.410;2023-02-15T04:41:22;100364.84;;;-2.72;100.00
71573;BME280;59408;51.032;9.410;2023-02-15T04:43:48;100365.28;;;-2.75;100.00
71573;BME280;59408;51.032;9.410;2023-02-15T04:46:15;100359.50;;;-2.72;100.00
71573;BME280;59408;51.032;9.410;2023-02-15T04:48:41;100350.91;;;-2.74;100.00
71573;BME280;59408;51.032;9.410;2023-02-15T04:51:08;100354.00;;;-2.77;100.00
71573;BME280;59408;51.032;9.410;2023-02-15T04:53:35;100349.91;;;-2.80;100.00
71573;BME280;59408;51.032;9.410;2023-02-15T04:56:03;100349.09;;;-2.80;100.00
71573;BME280;59408;51.032;9.410;2023-02-15T04:58:30;100364.31;;;-2.81;100.00
71573;BME280;59408;51.032;9.410;2023-02-15T05:00:57;100353.63;;;-2.81;100.00
71573;BME280;59408;51.032;9.410;2023-02-15T05:03:24;100350.38;;;-2.83;100.00
71573;BME280;59408;51.032;9.410;2023-02-15T05:05:50;100356.53;;;-2.82;100.00
71573;BME280;59408;51.032;9.410;2023-02-15T05:08:17;100351.41;;;-2.84;100.00
71573;BME280;59408;51.032;9.410;2023-02-15T05:10:44;100349.72;;;-2.78;100.00
71573;BME280;59408;51.032;9.410;2023-02-15T05:13:12;100344.50;;;-2.92;100.00
71573;BME280;59408;51.032;9.410;2023-02-15T05:15:38;100340.34;;;-2.88;100.00
71573;BME280;59408;51.032;9.410;2023-02-15T05:18:05;100346.09;;;-2.91;100.00
71573;BME280;59408;51.032;9.410;2023-02-15T05:20:32;100341.75;;;-2.85;100.00
71573;BME280;59408;51.032;9.410;2023-02-15T05:22:58;100337.88;;;-2.89;100.00
71573;BME280;59408;51.032;9.410;2023-02-15T05:25:25;100342.59;;;-2.84;100.00
71573;BME280;59408;51.032;9.410;2023-02-15T05:27:51;100341.09;;;-2.80;100.00
71573;BME280;59408;51.032;9.410;2023-02-15T05:30:20;100342.78;;;-2.86;100.00
71573;BME280;59408;51.032;9.410;2023-02-15T05:32:46;100349.38;;;-2.89;100.00
71573;BME280;59408;51.032;9.410;2023-02-15T05:35:15;100347.38;;;-2.93;100.00
71573;BME280;59408;51.032;9.410;2023-02-15T05:37:41;100345.91;;;-2.89;100.00
71573;BME280;59408;51.032;9.410;2023-02-15T05:40:09;100351.91;;;-2.94;100.00
71573;BME280;59408;51.032;9.410;2023-02-15T05:42:36;100349.03;;;-2.92;100.00
71573;BME280;59408;51.032;9.410;2023-02-15T05:45:03;100352.25;;;-2.90;100.00
71573;BME280;59408;51.032;9.410;2023-02-15T05:47:31;100353.28;;;-2.91;100.00
71573;BME280;59408;51.032;9.410;2023-02-15T05:49:58;100339.94;;;-2.91;100.00
71573;BME280;59408;51.032;9.410;2023-02-15T05:52:24;100350.06;;;-2.93;100.00
71573;BME280;59408;51.032;9.410;2023-02-15T05:54:51;100349.44;;;-2.95;100.00
71573;BME280;59408;51.032;9.410;2023-02-15T05:57:17;100344.50;;;-2.92;100.00
71573;BME280;59408;51.032;9.410;2023-02-15T05:59:44;100345.06;;;-2.90;100.00
71573;BME280;59408;51.032;9.410;2023-02-15T06:02:11;100351.50;;;-2.97;100.00
71573;BME280;59408;51.032;9.410;2023-02-15T06:04:39;100357.25;;;-2.94;100.00
71573;BME280;59408;51.032;9.410;2023-02-15T06:07:05;100355.00;;;-2.97;100.00
71573;BME280;59408;51.032;9.410;2023-02-15T06:09:32;100357.06;;;-2.99;100.00
71573;BME280;59408;51.032;9.410;2023-02-15T06:11:59;100362.41;;;-2.99;100.00
71573;BME280;59408;51.032;9.410;2023-02-15T06:14:25;100370.88;;;-3.02;100.00
71573;BME280;59408;51.032;9.410;2023-02-15T06:16:52;100364.03;;;-2.98;100.00
71573;BME280;59408;51.032;9.410;2023-02-15T06:19:19;100366.09;;;-3.00;100.00
71573;BME280;59408;51.032;9.410;2023-02-15T06:21:47;100363.81;;;-2.96;100.00
71573;BME280;59408;51.032;9.410;2023-02-15T06:24:13;100363.66;;;-3.01;100.00
71573;BME280;59408;51.032;9.410;2023-02-15T06:26:40;100359.38;;;-3.02;100.00
71573;BME280;59408;51.032;9.410;2023-02-15T06:29:07;100365.06;;;-2.99;100.00
71573;BME280;59408;51.032;9.410;2023-02-15T06:31:33;100361.97;;;-2.96;100.00
71573;BME280;59408;51.032;9.410;2023-02-15T06:34:00;100363.41;;;-2.93;100.00
71573;BME280;59408;51.032;9.410;2023-02-15T06:36:27;100366.00;;;-2.86;100.00
71573;BME280;59408;51.032;9.410;2023-02-15T06:38:55;100369.63;;;-2.81;100.00
71573;BME280;59408;51.032;9.410;2023-02-15T06:41:23;100360.81;;;-2.81;100.00
71573;BME280;59408;51.032;9.410;2023-02-15T06:43:50;100360.44;;;-2.85;100.00
71573;BME280;59408;51.032;9.410;2023-02-15T06:46:17;100363.53;;;-2.88;100.00
71573;BME280;59408;51.032;9.410;2023-02-15T06:48:43;100357.78;;;-2.85;100.00
71573;BME280;59408;51.032;9.410;2023-02-15T06:51:10;100369.28;;;-2.84;100.00
71573;BME280;59408;51.032;9.410;2023-02-15T06:53:37;100358.81;;;-2.86;100.00
71573;BME280;59408;51.032;9.410;2023-02-15T06:56:07;100357.78;;;-2.85;100.00
71573;BME280;59408;51.032;9.410;2023-02-15T06:58:34;100352.22;;;-2.83;100.00
71573;BME280;59408;51.032;9.410;2023-02-15T07:01:01;100355.66;;;-2.76;100.00
71573;BME280;59408;51.032;9.410;2023-02-15T07:03:27;100352.78;;;-2.75;100.00
71573;BME280;59408;51.032;9.410;2023-02-15T07:05:54;100353.81;;;-2.76;100.00
71573;BME280;59408;51.032;9.410;2023-02-15T07:08:21;100348.47;;;-2.76;100.00
71573;BME280;59408;51.032;9.410;2023-02-15T07:10:48;100344.91;;;-2.70;100.00
71573;BME280;59408;51.032;9.410;2023-02-15T07:13:17;100340.81;;;-2.72;100.00
71573;BME280;59408;51.032;9.410;2023-02-15T07:15:44;100350.66;;;-2.73;100.00
71573;BME280;59408;51.032;9.410;2023-02-15T07:18:11;100345.41;;;-2.79;100.00
71573;BME280;59408;51.032;9.410;2023-02-15T07:20:38;100347.84;;;-2.78;100.00
71573;BME280;59408;51.032;9.410;2023-02-15T07:23:05;100353.41;;;-2.79;100.00
71573;BME280;59408;51.032;9.410;2023-02-15T07:25:31;100355.44;;;-2.75;100.00
71573;BME280;59408;51.032;9.410;2023-02-15T07:27:58;100348.38;;;-2.69;100.00
71573;BME280;59408;51.032;9.410;2023-02-15T07:30:27;100350.63;;;-2.66;100.00
71573;BME280;59408;51.032;9.410;2023-02-15T07:32:55;100357.44;;;-2.70;100.00
71573;BME280;59408;51.032;9.410;2023-02-15T07:35:21;100360.91;;;-2.70;100.00
71573;BME280;59408;51.032;9.410;2023-02-15T07:37:48;100355.75;;;-2.65;100.00
71573;BME280;59408;51.032;9.410;2023-02-15T07:40:15;100368.72;;;-2.68;100.00
71573;BME280;59408;51.032;9.410;2023-02-15T07:42:41;100363.91;;;-2.60;100.00
71573;BME280;59408;51.032;9.410;2023-02-15T07:45:08;100354.69;;;-2.64;100.00
71573;BME280;59408;51.032;9.410;2023-02-15T07:47:36;100353.84;;;-2.58;100.00
71573;BME280;59408;51.032;9.410;2023-02-15T07:50:04;100353.66;;;-2.63;100.00
71573;BME280;59408;51.032;9.410;2023-02-15T07:52:30;100351.16;;;-2.58;100.00
71573;BME280;59408;51.032;9.410;2023-02-15T07:54:57;100344.56;;;-2.55;100.00
71573;BME280;59408;51.032;9.410;2023-02-15T07:57:23;100349.75;;;-2.60;100.00
71573;BME280;59408;51.032;9.410;2023-02-15T07:59:50;100346.19;;;-2.54;100.00
71573;BME280;59408;51.032;9.410;2023-02-15T08:02:17;100346.44;;;-2.56;100.00
71573;BME280;59408;51.032;9.410;2023-02-15T08:04:45;100350.34;;;-2.58;100.00
71573;BME280;59408;51.032;9.410;2023-02-15T08:07:11;100343.75;;;-2.56;100.00
71573;BME280;59408;51.032;9.410;2023-02-15T08:09:38;100349.22;;;-2.51;100.00
71573;BME280;59408;51.032;9.410;2023-02-15T08:12:06;100339.97;;;-2.48;100.00
71573;BME280;59408;51.032;9.410;2023-02-15T08:14:32;100344.84;;;-2.45;100.00
71573;BME280;59408;51.032;9.410;2023-02-15T08:17:00;100343.81;;;-2.44;100.00
71573;BME280;59408;51.032;9.410;2023-02-15T08:19:28;100344.84;;;-2.45;100.00
71573;BME280;59408;51.032;9.410;2023-02-15T08:21:58;100347.78;;;-2.46;100.00
71573;BME280;59408;51.032;9.410;2023-02-15T08:24:26;100339.59;;;-2.52;100.00
71573;BME280;59408;51.032;9.410;2023-02-15T08:26:54;100350.06;;;-2.50;100.00
71573;BME280;59408;51.032;9.410;2023-02-15T08:29:23;100335.50;;;-2.54;100.00
71573;BME280;59408;51.032;9.410;2023-02-15T08:31:52;100340.09;;;-2.43;100.00
71573;BME280;59408;51.032;9.410;2023-02-15T08:34:20;100336.94;;;-2.33;100.00
71573;BME280;59408;51.032;9.410;2023-02-15T08:36:47;100343.81;;;-2.26;100.00
71573;BME280;59408;51.032;9.410;2023-02-15T08:39:15;100340.34;;;-2.26;100.00
71573;BME280;59408;51.032;9.410;2023-02-15T08:41:43;100339.69;;;-2.22;100.00
71573;BME280;59408;51.032;9.410;2023-02-15T08:44:11;100333.31;;;-2.21;100.00
71573;BME280;59408;51.032;9.410;2023-02-15T08:46:39;100326.75;;;-2.25;100.00
71573;BME280;59408;51.032;9.410;2023-02-15T08:49:06;100336.47;;;-2.12;100.00
71573;BME280;59408;51.032;9.410;2023-02-15T08:51:34;100335.06;;;-2.15;100.00
71573;BME280;59408;51.032;9.410;2023-02-15T08:54:03;100337.53;;;-2.13;100.00
71573;BME280;59408;51.032;9.410;2023-02-15T08:56:33;100333.72;;;-2.05;100.00
71573;BME280;59408;51.032;9.410;2023-02-15T08:59:01;100337.59;;;-2.01;100.00
71573;BME280;59408;51.032;9.410;2023-02-15T09:01:29;100336.19;;;-2.04;100.00
71573;BME280;59408;51.032;9.410;2023-02-15T09:03:57;100324.94;;;-1.94;100.00
71573;BME280;59408;51.032;9.410;2023-02-15T09:06:24;100322.41;;;-1.89;100.00
71573;BME280;59408;51.032;9.410;2023-02-15T09:08:52;100327.09;;;-1.85;100.00
71573;BME280;59408;51.032;9.410;2023-02-15T09:11:20;100333.25;;;-1.84;100.00
71573;BME280;59408;51.032;9.410;2023-02-15T09:13:49;100320.78;;;-1.90;100.00
71573;BME280;59408;51.032;9.410;2023-02-15T09:16:17;100317.28;;;-1.91;100.00
71573;BME280;59408;51.032;9.410;2023-02-15T09:18:45;100311.56;;;-1.76;100.00
71573;BME280;59408;51.032;9.410;2023-02-15T09:21:13;100315.16;;;-1.70;100.00
71573;BME280;59408;51.032;9.410;2023-02-15T09:23:41;100308.94;;;-1.64;100.00
71573;BME280;59408;51.032;9.410;2023-02-15T09:26:09;100299.22;;;-1.77;100.00
71573;BME280;59408;51.032;9.410;2023-02-15T09:28:37;100292.59;;;-1.74;100.00
71573;BME280;59408;51.032;9.410;2023-02-15T09:31:08;100292.50;;;-1.68;100.00
71573;BME280;59408;51.032;9.410;2023-02-15T09:33:35;100287.75;;;-1.54;100.00
71573;BME280;59408;51.032;9.410;2023-02-15T09:36:03;100280.69;;;-1.49;100.00
71573;BME280;59408;51.032;9.410;2023-02-15T09:38:29;100281.84;;;-1.45;100.00
71573;BME280;59408;51.032;9.410;2023-02-15T09:41:06;100283.16;;;-1.35;100.00
71573;BME280;59408;51.032;9.410;2023-02-15T09:43:42;100290.94;;;-1.34;100.00
71573;BME280;59408;51.032;9.410;2023-02-15T09:46:24;100294.69;;;-1.23;100.00
71573;BME280;59408;51.032;9.410;2023-02-15T09:49:02;100299.59;;;-1.20;100.00
71573;BME280;59408;51.032;9.410;2023-02-15T09:51:59;100303.09;;;-1.08;100.00
71573;BME280;59408;51.032;9.410;2023-02-15T09:54:44;100305.22;;;-1.10;100.00
71573;BME280;59408;51.032;9.410;2023-02-15T09:57:22;100307.06;;;-0.87;100.00
71573;BME280;59408;51.032;9.410;2023-02-15T10:00:01;100313.69;;;-0.90;100.00
71573;BME280;59408;51.032;9.410;2023-02-15T10:02:44;100314.66;;;-0.84;100.00
71573;BME280;59408;51.032;9.410;2023-02-15T10:05:26;100310.34;;;-0.74;100.00
71573;BME280;59408;51.032;9.410;2023-02-15T10:08:18;100295.19;;;-0.68;100.00
71573;BME280;59408;51.032;9.410;2023-02-15T10:10:58;100307.53;;;-0.55;100.00
71573;BME280;59408;51.032;9.410;2023-02-15T10:13:34;100305.53;;;-0.37;100.00
71573;BME280;59408;51.032;9.410;2023-02-15T10:16:15;100306.47;;;-0.54;100.00
71573;BME280;59408;51.032;9.410;2023-02-15T10:18:55;100296.34;;;-0.52;100.00
71573;BME280;59408;51.032;9.410;2023-02-15T10:21:46;100303.47;;;-0.58;100.00
71573;BME280;59408;51.032;9.410;2023-02-15T10:24:37;100291.19;;;-0.54;100.00
71573;BME280;59408;51.032;9.410;2023-02-15T10:27:11;100301.81;;;-0.47;100.00
71573;BME280;59408;51.032;9.410;2023-02-15T10:29:39;100288.50;;;-0.42;100.00
71573;BME280;59408;51.032;9.410;2023-02-15T10:32:16;100287.31;;;-0.35;100.00
71573;BME280;59408;51.032;9.410;2023-02-15T10:34:51;100281.16;;;-0.35;100.00
71573;BME280;59408;51.032;9.410;2023-02-15T10:37:34;100283.13;;;-0.31;100.00
71573;BME280;59408;51.032;9.410;2023-02-15T10:40:10;100286.78;;;-0.37;100.00
71573;BME280;59408;51.032;9.410;2023-02-15T10:42:54;100287.88;;;-0.21;100.00
71573;BME280;59408;51.032;9.410;2023-02-15T10:45:30;100292.97;;;-0.08;100.00
71573;BME280;59408;51.032;9.410;2023-02-15T10:48:09;100280.09;;;0.06;100.00
71573;BME280;59408;51.032;9.410;2023-02-15T10:50:47;100285.00;;;0.09;100.00
71573;BME280;59408;51.032;9.410;2023-02-15T10:53:29;100285.44;;;0.18;100.00
71573;BME280;59408;51.032;9.410;2023-02-15T10:56:05;100279.53;;;0.32;100.00
71573;BME280;59408;51.032;9.410;2023-02-15T10:58:52;100280.75;;;0.41;100.00
71573;BME280;59408;51.032;9.410;2023-02-15T11:01:24;100274.88;;;0.28;100.00
71573;BME280;59408;51.032;9.410;2023-02-15T11:04:26;100275.25;;;0.20;100.00
71573;BME280;59408;51.032;9.410;2023-02-15T11:07:06;100275.44;;;0.30;100.00
71573;BME280;59408;51.032;9.410;2023-02-15T11:09:38;100275.88;;;0.38;100.00
71573;BME280;59408;51.032;9.410;2023-02-15T11:12:11;100268.88;;;0.37;100.00
71573;BME280;59408;51.032;9.410;2023-02-15T11:14:44;100272.06;;;0.34;100.00
71573;BME280;59408;51.032;9.410;2023-02-15T11:17:14;100270.00;;;0.25;100.00
71573;BME280;59408;51.032;9.410;2023-02-15T11:19:51;100267.78;;;0.22;100.00
71573;BME280;59408;51.032;9.410;2023-02-15T11:22:22;100264.13;;;0.28;100.00
71573;BME280;59408;51.032;9.410;2023-02-15T11:24:49;100268.78;;;0.32;100.00
71573;BME280;59408;51.032;9.410;2023-02-15T11:27:19;100261.31;;;0.34;100.00
71573;BME280;59408;51.032;9.410;2023-02-15T11:29:53;100259.09;;;0.31;100.00
71573;BME280;59408;51.032;9.410;2023-02-15T11:32:24;100251.41;;;0.35;100.00
71573;BME280;59408;51.032;9.410;2023-02-15T11:34:55;100263.13;;;0.45;100.00
71573;BME280;59408;51.032;9.410;2023-02-15T11:37:28;100266.03;;;0.27;100.00
71573;BME280;59408;51.032;9.410;2023-02-15T11:39:57;100252.34;;;0.29;100.00
71573;BME280;59408;51.032;9.410;2023-02-15T11:42:25;100257.41;;;0.42;100.00
71573;BME280;59408;51.032;9.410;2023-02-15T11:44:59;100256.84;;;0.57;100.00
71573;BME280;59408;51.032;9.410;2023-02-15T11:47:28;100250.13;;;0.54;100.00
71573;BME280;59408;51.032;9.410;2023-02-15T11:49:55;100244.66;;;0.49;100.00
71573;BME280;59408;51.032;9.410;2023-02-15T11:52:22;100256.66;;;0.30;100.00
71573;BME280;59408;51.032;9.410;2023-02-15T11:54:52;100254.97;;;0.40;100.00
71573;BME280;59408;51.032;9.410;2023-02-15T11:57:23;100256.69;;;0.46;100.00
71573;BME280;59408;51.032;9.410;2023-02-15T11:59:57;100245.88;;;0.41;100.00
71573;BME280;59408;51.032;9.410;2023-02-15T12:02:24;100244.66;;;0.66;100.00
71573;BME280;59408;51.032;9.410;2023-02-15T12:04:54;100243.66;;;0.55;100.00
71573;BME280;59408;51.032;9.410;2023-02-15T12:07:25;100246.13;;;0.73;100.00
71573;BME280;59408;51.032;9.410;2023-02-15T12:10:00;100253.03;;;0.69;100.00
71573;BME280;59408;51.032;9.410;2023-02-15T12:12:31;100249.06;;;0.72;100.00
71573;BME280;59408;51.032;9.410;2023-02-15T12:14:59;100241.50;;;0.69;100.00
71573;BME280;59408;51.032;9.410;2023-02-15T12:17:28;100246.94;;;0.74;100.00
71573;BME280;59408;51.032;9.410;2023-02-15T12:19:59;100240.09;;;0.66;100.00
71573;BME280;59408;51.032;9.410;2023-02-15T12:22:28;100240.28;;;0.60;100.00
71573;BME280;59408;51.032;9.410;2023-02-15T12:24:59;100246.22;;;0.62;100.00
71573;BME280;59408;51.032;9.410;2023-02-15T12:27:28;100237.94;;;0.63;100.00
71573;BME280;59408;51.032;9.410;2023-02-15T12:29:58;100235.63;;;0.55;100.00
71573;BME280;59408;51.032;9.410;2023-02-15T12:32:28;100233.38;;;0.64;100.00
71573;BME280;59408;51.032;9.410;2023-02-15T12:35:00;100231.22;;;0.82;100.00
71573;BME280;59408;51.032;9.410;2023-02-15T12:37:29;100221.63;;;0.86;100.00
71573;BME280;59408;51.032;9.410;2023-02-15T12:39:58;100228.97;;;0.91;100.00
71573;BME280;59408;51.032;9.410;2023-02-15T12:42:27;100221.69;;;0.92;100.00
71573;BME280;59408;51.032;9.410;2023-02-15T12:44:58;100226.28;;;0.91;100.00
71573;BME280;59408;51.032;9.410;2023-02-15T12:47:26;100223.50;;;0.86;100.00
71573;BME280;59408;51.032;9.410;2023-02-15T12:50:12;100216.78;;;1.05;100.00
71573;BME280;59408;51.032;9.410;2023-02-15T12:52:39;100213.44;;;1.15;100.00
71573;BME280;59408;51.032;9.410;2023-02-15T12:55:19;100215.78;;;1.11;100.00